National Weather Service Raw Text Product

Displaying AFOS PIL: TAFALO Received: 2018-04-17 09:07 UTC


260 
FTUS43 KDMX 170907 AAB
TAFALO
TAF AMD
KALO 170907Z 1709/1806 29007KT P6SM SCT035
      TEMPO 1711/1713 5SM BR
     FM171400 35006KT P6SM SKC
     FM172100 04007KT P6SM FEW180
     FM180200 07008KT P6SM SCT050=

987 
FTUS43 KDMX 170907 AAA
TAFALO
TAF AMD
KALO 170907Z 1709/1806 29007KT P6SM SCT035
      TEMPO 1711/1713 5SM BR
     FM171400 35006KT P6SM SKC
     FM172100 04007KT P6SM FEW180
     FM180200 07008KT P6SM SCT050=